createdAt,value
2022-10-07T00:01:08.517Z,7.35
2022-10-07T00:03:37.021Z,6.39
2022-10-07T00:06:13.548Z,7.07
2022-10-07T00:08:43.851Z,6.80
2022-10-07T00:11:21.706Z,6.70
2022-10-07T00:13:54.986Z,6.26
2022-10-07T00:16:28.510Z,6.86
2022-10-07T00:18:58.639Z,5.75
2022-10-07T00:21:28.278Z,5.64
2022-10-07T00:23:56.796Z,6.24
2022-10-07T00:26:26.839Z,5.81
2022-10-07T00:28:56.025Z,5.47
2022-10-07T00:31:29.054Z,5.60
2022-10-07T00:33:57.724Z,6.45
2022-10-07T00:36:32.269Z,6.49
2022-10-07T00:39:02.446Z,6.55
2022-10-07T00:41:36.824Z,5.90
2022-10-07T00:44:32.090Z,5.22
2022-10-07T00:47:09.253Z,5.84
2022-10-07T00:49:44.700Z,6.30
2022-10-07T00:52:13.846Z,6.08
2022-10-07T00:54:42.154Z,5.43
2022-10-07T00:57:10.529Z,5.14
2022-10-07T00:59:40.336Z,5.21
2022-10-07T01:02:10.384Z,5.18
2022-10-07T01:04:39.285Z,5.15
2022-10-07T01:07:07.754Z,4.89
2022-10-07T01:09:36.177Z,5.94
2022-10-07T01:12:33.065Z,5.97
2022-10-07T01:15:03.425Z,5.79
2022-10-07T01:17:40.367Z,5.20
2022-10-07T01:20:30.182Z,4.92
2022-10-07T01:23:36.039Z,4.89
2022-10-07T01:26:15.159Z,5.32
2022-10-07T01:28:54.338Z,4.80
2022-10-07T01:31:25.730Z,4.79
2022-10-07T01:33:54.144Z,5.69
2022-10-07T01:36:24.831Z,5.73
2022-10-07T01:38:57.036Z,5.73
2022-10-07T01:41:26.571Z,5.74
2022-10-07T01:43:55.121Z,5.83
2022-10-07T01:46:25.095Z,5.97
2022-10-07T01:48:55.309Z,5.83
2022-10-07T01:51:28.742Z,6.10
2022-10-07T01:54:11.891Z,6.09
2022-10-07T01:57:21.207Z,5.99
2022-10-07T02:00:01.369Z,6.28
2022-10-07T02:03:13.107Z,6.26
2022-10-07T02:05:54.985Z,6.13
2022-10-07T02:08:34.062Z,6.07
2022-10-07T02:11:09.464Z,6.26
2022-10-07T02:14:05.974Z,6.24
2022-10-07T02:17:19.471Z,4.84
2022-10-07T02:19:50.075Z,5.78
2022-10-07T02:22:19.927Z,5.84
2022-10-07T02:24:48.385Z,6.01
2022-10-07T02:27:19.447Z,5.69
2022-10-07T02:29:54.756Z,5.79
2022-10-07T02:32:24.090Z,5.94
2022-10-07T02:34:55.467Z,5.32
2022-10-07T02:37:27.657Z,5.03
2022-10-07T02:39:56.464Z,4.62
2022-10-07T02:42:41.713Z,4.48
2022-10-07T02:45:24.519Z,4.70
2022-10-07T02:48:34.051Z,4.65
2022-10-07T02:51:04.318Z,5.09
2022-10-07T02:53:32.737Z,5.06
2022-10-07T02:56:01.446Z,4.80
2022-10-07T02:58:31.065Z,4.73
2022-10-07T03:01:01.601Z,4.17
2022-10-07T03:03:30.652Z,4.24
2022-10-07T03:06:06.035Z,4.18
2022-10-07T03:08:36.698Z,4.12
2022-10-07T03:11:05.087Z,3.97
2022-10-07T03:13:35.456Z,3.92
2022-10-07T03:16:05.642Z,4.48
2022-10-07T03:18:34.828Z,5.01
2022-10-07T03:21:10.559Z,5.32
2022-10-07T03:23:39.218Z,5.45
2022-10-07T03:26:07.806Z,5.45
2022-10-07T03:28:37.893Z,5.23
2022-10-07T03:31:09.072Z,4.77
2022-10-07T03:33:40.436Z,4.32
2022-10-07T03:36:10.370Z,4.30
2022-10-07T03:38:41.584Z,4.94
2022-10-07T03:41:12.620Z,5.08
2022-10-07T03:43:41.342Z,4.97
2022-10-07T03:46:11.627Z,5.16
2022-10-07T03:48:40.950Z,5.15
2022-10-07T03:51:09.445Z,4.78
2022-10-07T03:53:40.756Z,4.19
2022-10-07T03:56:10.268Z,4.50
2022-10-07T03:58:42.021Z,4.10
2022-10-07T04:01:15.305Z,4.26
2022-10-07T04:03:50.683Z,4.29
2022-10-07T04:06:19.723Z,4.18
2022-10-07T04:08:52.707Z,4.30
2022-10-07T04:11:22.248Z,4.72
2022-10-07T04:13:53.675Z,4.65
2022-10-07T04:16:24.652Z,4.22
2022-10-07T04:18:56.942Z,4.49
2022-10-07T04:21:27.206Z,4.91
2022-10-07T04:23:55.882Z,5.02
2022-10-07T04:26:24.424Z,4.83
2022-10-07T04:28:52.936Z,4.32
2022-10-07T04:31:24.288Z,4.46
2022-10-07T04:33:59.823Z,3.93
2022-10-07T04:36:35.803Z,4.30
2022-10-07T04:39:08.228Z,4.32
2022-10-07T04:41:39.505Z,4.73
2022-10-07T04:44:13.308Z,4.29
2022-10-07T04:46:50.268Z,4.73
2022-10-07T04:49:19.522Z,4.88
2022-10-07T04:51:48.096Z,3.75
2022-10-07T04:54:17.133Z,4.22
2022-10-07T04:56:51.124Z,4.01
2022-10-07T04:59:24.459Z,4.60
2022-10-07T05:01:55.665Z,4.73
2022-10-07T05:04:24.931Z,5.04
2022-10-07T05:06:54.935Z,5.13
2022-10-07T05:09:23.507Z,5.10
2022-10-07T05:11:57.887Z,4.53
2022-10-07T05:14:26.271Z,4.82
2022-10-07T05:16:57.129Z,5.20
2022-10-07T05:19:29.321Z,5.22
2022-10-07T05:21:57.818Z,5.33
2022-10-07T05:24:27.411Z,5.79
2022-10-07T05:26:55.996Z,5.96
2022-10-07T05:29:24.511Z,6.14
2022-10-07T05:31:55.317Z,6.28
2022-10-07T05:34:27.328Z,6.44
2022-10-07T05:36:56.403Z,6.33
2022-10-07T05:39:24.897Z,6.65
2022-10-07T05:41:57.967Z,6.94
2022-10-07T05:44:32.676Z,6.51
2022-10-07T05:47:03.491Z,6.89
2022-10-07T05:49:33.134Z,7.17
2022-10-07T05:52:01.611Z,7.18
2022-10-07T05:54:31.005Z,6.79
2022-10-07T05:57:00.598Z,7.02
2022-10-07T05:59:31.606Z,6.72
2022-10-07T06:02:01.482Z,7.26
2022-10-07T06:04:31.639Z,7.09
2022-10-07T06:07:00.946Z,7.28
2022-10-07T06:09:48.252Z,7.63
2022-10-07T06:12:37.272Z,7.74
2022-10-07T06:15:10.741Z,7.95
2022-10-07T06:17:45.714Z,8.09
2022-10-07T06:20:17.810Z,7.83
2022-10-07T06:22:47.406Z,8.52
2022-10-07T06:25:17.611Z,8.43
2022-10-07T06:27:52.768Z,8.32
2022-10-07T06:30:22.972Z,8.16
2022-10-07T06:32:52.114Z,7.96
2022-10-07T06:35:20.951Z,8.20
2022-10-07T06:37:51.716Z,8.35
2022-10-07T06:40:20.716Z,7.77
2022-10-07T06:42:49.111Z,8.00
2022-10-07T06:45:33.697Z,8.90
2022-10-07T06:48:03.605Z,8.55
2022-10-07T06:50:32.897Z,8.21
2022-10-07T06:53:01.967Z,7.94
2022-10-07T06:55:33.284Z,8.86
2022-10-07T06:58:06.333Z,9.46
2022-10-07T07:00:39.270Z,9.37
2022-10-07T07:03:09.236Z,9.38
2022-10-07T07:05:42.827Z,8.82
2022-10-07T07:08:17.508Z,9.20
2022-10-07T07:10:47.233Z,9.28
2022-10-07T07:13:15.800Z,10.00
2022-10-07T07:16:04.113Z,9.83
2022-10-07T07:18:35.318Z,10.06
2022-10-07T07:21:08.107Z,9.84
2022-10-07T07:23:37.456Z,10.27
2022-10-07T07:26:05.858Z,10.69
2022-10-07T07:28:35.172Z,10.64
2022-10-07T07:31:09.671Z,10.53
2022-10-07T07:33:39.637Z,10.52
2022-10-07T07:36:16.210Z,10.77
2022-10-07T07:38:56.045Z,11.05
2022-10-07T07:41:27.704Z,11.26
2022-10-07T07:43:58.956Z,11.86
2022-10-07T07:46:30.043Z,11.55
2022-10-07T07:48:58.825Z,11.94
2022-10-07T07:51:28.042Z,11.95
2022-10-07T07:53:57.604Z,12.02
2022-10-07T07:56:27.189Z,12.31
2022-10-07T07:58:56.701Z,12.07
2022-10-07T08:01:25.312Z,12.40
2022-10-07T08:03:54.909Z,12.48
2022-10-07T08:06:23.553Z,12.06
2022-10-07T08:08:53.896Z,13.05
2022-10-07T08:11:22.357Z,12.80
2022-10-07T08:13:52.154Z,13.30
2022-10-07T08:16:23.495Z,13.22
2022-10-07T08:18:53.628Z,13.56
2022-10-07T08:21:23.923Z,14.14
2022-10-07T08:23:57.732Z,13.73
2022-10-07T08:26:31.270Z,14.18
2022-10-07T08:29:01.862Z,13.99
2022-10-07T08:31:30.506Z,14.18
2022-10-07T08:33:59.900Z,15.08
2022-10-07T08:36:29.434Z,15.17
2022-10-07T08:38:57.863Z,15.05
2022-10-07T08:41:35.036Z,15.30
2022-10-07T08:44:21.084Z,15.10
2022-10-07T08:47:17.758Z,14.85
2022-10-07T08:50:19.868Z,15.66
2022-10-07T08:52:51.311Z,15.52
2022-10-07T08:55:24.669Z,15.25
2022-10-07T08:58:31.283Z,14.64
2022-10-07T09:01:27.437Z,15.75
2022-10-07T09:04:23.007Z,15.74
2022-10-07T09:07:01.589Z,15.33
2022-10-07T09:09:41.594Z,15.74
2022-10-07T09:12:14.856Z,16.13
2022-10-07T09:14:44.624Z,15.61
2022-10-07T09:17:19.463Z,16.55
2022-10-07T09:19:49.709Z,16.23
2022-10-07T09:22:24.019Z,16.27
2022-10-07T09:24:56.527Z,17.05
2022-10-07T09:27:27.097Z,16.47
2022-10-07T09:29:55.505Z,16.94
2022-10-07T09:32:24.365Z,17.27
2022-10-07T09:34:53.153Z,17.13
2022-10-07T09:37:27.912Z,17.01
2022-10-07T09:39:58.220Z,17.95
2022-10-07T09:42:35.720Z,18.30
2022-10-07T09:45:32.419Z,17.82
2022-10-07T09:48:19.606Z,17.84
2022-10-07T09:50:48.417Z,18.10
2022-10-07T09:53:19.746Z,18.24
2022-10-07T09:55:48.364Z,17.86
2022-10-07T09:58:34.724Z,18.14
2022-10-07T10:01:03.525Z,18.40
2022-10-07T10:03:33.373Z,18.25
2022-10-07T10:06:06.755Z,18.51
2022-10-07T10:08:35.034Z,18.20
2022-10-07T10:11:05.328Z,18.24
2022-10-07T10:13:34.545Z,18.43
2022-10-07T10:16:06.264Z,18.56
2022-10-07T10:18:41.446Z,18.60
2022-10-07T10:21:22.270Z,18.33
2022-10-07T10:24:14.566Z,18.41
2022-10-07T10:27:07.120Z,18.23
2022-10-07T10:29:38.490Z,18.13
2022-10-07T10:32:37.152Z,17.92
2022-10-07T10:35:13.649Z,17.98
2022-10-07T10:37:42.822Z,18.18
2022-10-07T10:40:23.269Z,18.06
2022-10-07T10:43:22.555Z,18.75
2022-10-07T10:46:09.981Z,18.35
2022-10-07T10:49:13.092Z,18.06
2022-10-07T10:51:48.374Z,18.12
2022-10-07T10:54:26.661Z,18.75
2022-10-07T10:57:09.826Z,18.47
2022-10-07T10:59:44.445Z,18.93
2022-10-07T11:02:38.802Z,19.13
2022-10-07T11:05:19.641Z,19.03
2022-10-07T11:07:51.438Z,18.26
2022-10-07T11:10:45.284Z,19.22
2022-10-07T11:13:13.629Z,18.90
2022-10-07T11:15:51.787Z,18.26
2022-10-07T11:18:35.714Z,19.12
2022-10-07T11:21:08.244Z,18.61
2022-10-07T11:24:02.452Z,19.04
2022-10-07T11:26:51.273Z,18.62
2022-10-07T11:29:41.299Z,18.71
2022-10-07T11:32:31.374Z,18.73
2022-10-07T11:35:29.397Z,18.42
2022-10-07T11:38:15.725Z,18.53
2022-10-07T11:40:45.741Z,18.77
2022-10-07T11:43:41.438Z,18.86
2022-10-07T11:46:18.890Z,18.50
2022-10-07T11:49:11.493Z,18.73
2022-10-07T11:51:45.480Z,18.44
2022-10-07T11:54:15.256Z,17.91
2022-10-07T11:56:51.882Z,18.89
2022-10-07T11:59:42.334Z,18.78
2022-10-07T12:02:29.512Z,18.43
2022-10-07T12:05:02.126Z,18.23
2022-10-07T12:07:35.295Z,18.13
2022-10-07T12:10:07.266Z,18.48
2022-10-07T12:12:46.869Z,19.11
2022-10-07T12:15:39.911Z,18.11
2022-10-07T12:18:10.853Z,18.29
2022-10-07T12:20:53.341Z,18.15
2022-10-07T12:23:26.180Z,18.51
2022-10-07T12:26:01.623Z,18.48
2022-10-07T12:28:35.775Z,18.49
2022-10-07T12:31:15.790Z,18.59
2022-10-07T12:33:47.268Z,18.18
2022-10-07T12:36:25.913Z,18.53
2022-10-07T12:39:01.052Z,18.36
2022-10-07T12:41:36.386Z,18.74
2022-10-07T12:44:39.957Z,18.86
2022-10-07T12:47:18.636Z,18.36
2022-10-07T12:49:51.531Z,17.96
2022-10-07T12:52:33.716Z,18.09
2022-10-07T12:55:14.148Z,18.52
2022-10-07T12:57:47.671Z,18.36
2022-10-07T13:00:16.274Z,18.20
2022-10-07T13:03:03.699Z,18.23
2022-10-07T13:05:57.685Z,18.43
2022-10-07T13:08:44.071Z,18.40
2022-10-07T13:11:47.533Z,18.21
2022-10-07T13:14:38.353Z,18.22
2022-10-07T13:17:21.054Z,18.97
2022-10-07T13:20:02.074Z,18.65
2022-10-07T13:22:31.678Z,17.99
2022-10-07T13:25:01.133Z,18.44
2022-10-07T13:27:33.525Z,18.36
2022-10-07T13:30:02.735Z,17.88
2022-10-07T13:32:32.353Z,18.00
2022-10-07T13:35:01.910Z,17.81
2022-10-07T13:37:37.931Z,17.98
2022-10-07T13:40:25.207Z,17.93
2022-10-07T13:42:59.563Z,17.49
2022-10-07T13:45:28.544Z,17.74
2022-10-07T13:47:57.962Z,17.28
2022-10-07T13:50:28.057Z,17.56
2022-10-07T13:52:56.433Z,17.69
2022-10-07T13:55:31.861Z,17.74
2022-10-07T13:58:02.239Z,17.58
2022-10-07T14:00:32.842Z,17.14
2022-10-07T14:03:02.143Z,17.44
2022-10-07T14:05:31.264Z,17.42
2022-10-07T14:08:00.921Z,17.51
2022-10-07T14:10:30.300Z,17.20
2022-10-07T14:13:03.619Z,17.09
2022-10-07T14:15:33.871Z,17.08
2022-10-07T14:18:06.028Z,17.06
2022-10-07T14:20:36.245Z,16.72
2022-10-07T14:23:17.664Z,17.14
2022-10-07T14:25:49.055Z,17.03
2022-10-07T14:28:23.713Z,17.12
2022-10-07T14:31:26.199Z,17.16
2022-10-07T14:34:17.265Z,16.76
2022-10-07T14:37:10.962Z,16.85
2022-10-07T14:39:48.551Z,16.94
2022-10-07T14:42:28.990Z,16.80
2022-10-07T14:44:57.467Z,16.61
2022-10-07T14:47:28.619Z,16.54
2022-10-07T14:49:58.226Z,16.55
2022-10-07T14:52:31.870Z,16.62
2022-10-07T14:55:16.305Z,16.47
2022-10-07T14:57:45.444Z,16.26
2022-10-07T15:00:21.878Z,16.36
2022-10-07T15:02:51.700Z,16.65
2022-10-07T15:05:20.075Z,16.86
2022-10-07T15:07:48.960Z,16.65
2022-10-07T15:10:19.693Z,16.62
2022-10-07T15:12:48.663Z,16.90
2022-10-07T15:15:17.598Z,17.19
2022-10-07T15:17:46.006Z,17.50
2022-10-07T15:20:15.451Z,17.15
2022-10-07T15:22:44.354Z,16.96
2022-10-07T15:25:13.037Z,16.46
2022-10-07T15:27:41.890Z,16.52
2022-10-07T15:30:11.148Z,16.39
2022-10-07T15:32:39.582Z,15.80
2022-10-07T15:35:08.555Z,15.98
2022-10-07T15:37:37.682Z,16.34
2022-10-07T15:40:07.910Z,15.94
2022-10-07T15:42:36.228Z,15.52
2022-10-07T15:45:04.957Z,16.13
2022-10-07T15:47:34.638Z,16.17
2022-10-07T15:50:03.206Z,15.98
2022-10-07T15:52:31.681Z,16.11
2022-10-07T15:55:03.839Z,16.20
2022-10-07T15:57:35.122Z,15.94
2022-10-07T16:00:05.160Z,16.21
2022-10-07T16:02:40.178Z,16.37
2022-10-07T16:05:10.000Z,15.99
2022-10-07T16:07:39.187Z,16.10
2022-10-07T16:10:12.104Z,16.09
2022-10-07T16:12:42.010Z,16.21
2022-10-07T16:15:10.744Z,15.57
2022-10-07T16:17:39.123Z,15.95
2022-10-07T16:20:11.399Z,15.68
2022-10-07T16:22:40.085Z,15.44
2022-10-07T16:25:08.924Z,15.51
2022-10-07T16:27:56.917Z,15.28
2022-10-07T16:30:43.954Z,15.29
2022-10-07T16:33:12.409Z,15.26
2022-10-07T16:35:40.830Z,15.29
2022-10-07T16:38:09.336Z,15.33
2022-10-07T16:40:38.545Z,15.02
2022-10-07T16:43:06.908Z,14.85
2022-10-07T16:45:35.304Z,14.90
2022-10-07T16:48:03.893Z,14.40
2022-10-07T16:50:32.227Z,14.67
2022-10-07T16:53:01.634Z,14.82
2022-10-07T16:55:30.091Z,14.84
2022-10-07T16:57:58.574Z,14.47
2022-10-07T17:00:27.461Z,14.11
2022-10-07T17:02:55.875Z,13.93
2022-10-07T17:05:24.254Z,14.19
2022-10-07T17:07:52.728Z,14.39
2022-10-07T17:10:21.571Z,14.43
2022-10-07T17:12:50.066Z,14.45
2022-10-07T17:15:18.697Z,14.42
2022-10-07T17:17:47.592Z,14.40
2022-10-07T17:20:16.668Z,14.18
2022-10-07T17:22:45.464Z,14.06
2022-10-07T17:25:14.632Z,13.70
2022-10-07T17:27:44.166Z,13.67
2022-10-07T17:30:16.248Z,13.74
2022-10-07T17:32:45.472Z,13.73
2022-10-07T17:35:13.939Z,13.63
2022-10-07T17:37:43.454Z,13.48
2022-10-07T17:40:12.058Z,13.00
2022-10-07T17:42:40.458Z,12.86
2022-10-07T17:45:11.571Z,12.14
2022-10-07T17:47:39.981Z,12.47
2022-10-07T17:50:08.655Z,12.80
2022-10-07T17:52:37.645Z,12.73
2022-10-07T17:55:07.884Z,12.63
2022-10-07T17:57:36.275Z,12.89
2022-10-07T18:00:07.148Z,12.58
2022-10-07T18:02:40.427Z,11.52
2022-10-07T18:05:09.157Z,11.55
2022-10-07T18:07:37.604Z,12.32
2022-10-07T18:10:06.479Z,11.48
2022-10-07T18:12:53.577Z,11.12
2022-10-07T18:15:22.616Z,11.86
2022-10-07T18:17:51.867Z,10.97
2022-10-07T18:20:22.068Z,10.82
2022-10-07T18:22:57.599Z,10.26
2022-10-07T18:25:26.478Z,11.15
2022-10-07T18:27:55.085Z,11.21
2022-10-07T18:30:23.680Z,11.29
2022-10-07T18:32:52.290Z,11.76
2022-10-07T18:35:20.873Z,11.02
2022-10-07T18:37:52.117Z,11.24
2022-10-07T18:40:20.566Z,11.66
2022-10-07T18:42:50.426Z,11.85
2022-10-07T18:45:19.372Z,11.62
2022-10-07T18:47:48.862Z,11.87
2022-10-07T18:50:17.607Z,11.30
2022-10-07T18:52:46.051Z,11.52
2022-10-07T18:55:14.723Z,11.42
2022-10-07T18:57:43.377Z,11.20
2022-10-07T19:00:12.859Z,11.32
2022-10-07T19:02:43.302Z,10.76
2022-10-07T19:05:11.781Z,10.66
2022-10-07T19:07:40.592Z,10.99
2022-10-07T19:10:09.739Z,11.22
2022-10-07T19:12:56.621Z,11.03
2022-10-07T19:15:25.025Z,11.00
2022-10-07T19:17:53.550Z,10.60
2022-10-07T19:20:22.423Z,10.94
2022-10-07T19:22:52.545Z,11.20
2022-10-07T19:25:39.387Z,11.13
2022-10-07T19:28:08.838Z,11.22
2022-10-07T19:30:37.801Z,10.88
2022-10-07T19:33:06.252Z,10.01
2022-10-07T19:35:35.022Z,9.95
2022-10-07T19:38:07.680Z,10.29
2022-10-07T19:40:42.757Z,10.42
2022-10-07T19:43:11.671Z,10.62
2022-10-07T19:45:41.245Z,10.76
2022-10-07T19:48:14.162Z,10.71
2022-10-07T19:50:43.168Z,10.80
2022-10-07T19:53:11.609Z,10.96
2022-10-07T19:55:44.586Z,10.41
2022-10-07T19:58:13.142Z,10.19
2022-10-07T20:00:41.606Z,10.21
2022-10-07T20:03:10.007Z,10.31
2022-10-07T20:05:40.350Z,10.36
2022-10-07T20:08:10.493Z,10.47
2022-10-07T20:10:38.997Z,10.58
2022-10-07T20:13:07.374Z,10.62
2022-10-07T20:15:35.686Z,10.43
2022-10-07T20:18:04.286Z,10.50
2022-10-07T20:20:33.706Z,9.85
2022-10-07T20:23:02.621Z,9.69
2022-10-07T20:25:31.050Z,9.94
2022-10-07T20:27:59.578Z,10.41
2022-10-07T20:30:27.963Z,10.43
2022-10-07T20:32:56.609Z,9.81
2022-10-07T20:35:25.269Z,9.65
2022-10-07T20:37:53.594Z,9.91
2022-10-07T20:40:40.653Z,10.16
2022-10-07T20:43:09.137Z,10.12
2022-10-07T20:45:56.503Z,10.25
2022-10-07T20:48:25.691Z,10.02
2022-10-07T20:50:55.602Z,9.93
2022-10-07T20:53:23.924Z,9.48
2022-10-07T20:55:53.281Z,9.54
2022-10-07T20:58:21.963Z,8.96
2022-10-07T21:00:51.202Z,9.19
2022-10-07T21:03:19.561Z,9.49
2022-10-07T21:05:47.989Z,9.78
2022-10-07T21:08:16.388Z,9.90
2022-10-07T21:10:44.747Z,9.78
2022-10-07T21:13:15.043Z,9.85
2022-10-07T21:15:43.590Z,9.35
2022-10-07T21:18:11.933Z,9.35
2022-10-07T21:20:56.267Z,9.37
2022-10-07T21:23:25.157Z,9.49
2022-10-07T21:25:53.519Z,9.57
2022-10-07T21:28:22.052Z,9.85
2022-10-07T21:30:58.633Z,9.55
2022-10-07T21:33:27.867Z,8.45
2022-10-07T21:36:07.296Z,8.55
2022-10-07T21:38:35.794Z,8.01
2022-10-07T21:41:14.825Z,8.51
2022-10-07T21:43:44.388Z,9.11
2022-10-07T21:46:12.998Z,8.94
2022-10-07T21:48:41.473Z,7.70
2022-10-07T21:51:10.735Z,7.84
2022-10-07T21:53:39.129Z,8.30
2022-10-07T21:56:08.646Z,8.81
2022-10-07T21:58:37.109Z,8.59
2022-10-07T22:01:12.561Z,8.96
2022-10-07T22:03:41.474Z,8.60
2022-10-07T22:06:12.021Z,9.17
2022-10-07T22:08:42.854Z,8.86
2022-10-07T22:11:18.669Z,8.77
2022-10-07T22:14:00.412Z,8.72
2022-10-07T22:16:29.120Z,8.45
2022-10-07T22:18:57.658Z,7.69
2022-10-07T22:21:28.072Z,8.25
2022-10-07T22:23:58.036Z,8.48
2022-10-07T22:26:28.253Z,8.45
2022-10-07T22:28:57.480Z,7.50
2022-10-07T22:31:26.730Z,7.68
2022-10-07T22:33:57.023Z,8.27
2022-10-07T22:36:25.622Z,8.21
2022-10-07T22:38:55.875Z,8.61
2022-10-07T22:41:24.894Z,8.57
2022-10-07T22:43:53.809Z,8.77
2022-10-07T22:46:27.171Z,8.94
2022-10-07T22:48:58.635Z,8.72
2022-10-07T22:51:30.006Z,8.24
2022-10-07T22:53:58.458Z,7.68
2022-10-07T22:56:28.319Z,7.49
2022-10-07T22:59:00.067Z,8.25
2022-10-07T23:01:32.014Z,8.56
2022-10-07T23:04:03.387Z,7.97
2022-10-07T23:06:33.948Z,7.98
2022-10-07T23:09:02.852Z,7.64
2022-10-07T23:11:31.515Z,7.79
2022-10-07T23:14:00.278Z,7.77
2022-10-07T23:16:34.315Z,7.93
2022-10-07T23:19:02.686Z,7.74
2022-10-07T23:21:34.491Z,7.77
2022-10-07T23:24:07.842Z,7.49
2022-10-07T23:26:37.082Z,7.97
2022-10-07T23:29:05.452Z,7.95
2022-10-07T23:31:34.169Z,8.03
2022-10-07T23:34:03.409Z,8.13
2022-10-07T23:36:31.964Z,7.94
2022-10-07T23:39:00.702Z,8.05
2022-10-07T23:41:30.037Z,7.93
2022-10-07T23:43:59.820Z,8.37
2022-10-07T23:46:28.364Z,8.32
2022-10-07T23:48:56.795Z,8.37
2022-10-07T23:51:26.448Z,8.14
2022-10-07T23:53:59.271Z,8.19
2022-10-07T23:56:27.631Z,8.42
2022-10-07T23:58:56.181Z,8.05
